sensor_id;sensor_type;location;lat;lon;timestamp;P1;durP1;ratioP1;P2;durP2;ratioP2
35048;SDS011;21236;48.740;-3.446;2022-11-20T00:01:31;14.77;;;4.65;;
35048;SDS011;21236;48.740;-3.446;2022-11-20T00:03:58;12.55;;;5.40;;
35048;SDS011;21236;48.740;-3.446;2022-11-20T00:06:24;33.42;;;10.57;;
35048;SDS011;21236;48.740;-3.446;2022-11-20T00:08:51;10.90;;;3.92;;
35048;SDS011;21236;48.740;-3.446;2022-11-20T00:11:20;8.73;;;3.15;;
35048;SDS011;21236;48.740;-3.446;2022-11-20T00:13:47;5.47;;;3.10;;
35048;SDS011;21236;48.740;-3.446;2022-11-20T00:16:15;10.93;;;3.88;;
35048;SDS011;21236;48.740;-3.446;2022-11-20T00:18:41;8.68;;;3.38;;
35048;SDS011;21236;48.740;-3.446;2022-11-20T00:21:10;7.25;;;2.88;;
35048;SDS011;21236;48.740;-3.446;2022-11-20T00:23:37;8.52;;;2.92;;
35048;SDS011;21236;48.740;-3.446;2022-11-20T00:26:07;12.85;;;3.95;;
35048;SDS011;21236;48.740;-3.446;2022-11-20T00:28:33;8.50;;;2.50;;
35048;SDS011;21236;48.740;-3.446;2022-11-20T00:31:13;8.13;;;3.55;;
35048;SDS011;21236;48.740;-3.446;2022-11-20T00:33:39;14.35;;;4.57;;
35048;SDS011;21236;48.740;-3.446;2022-11-20T00:36:10;4.25;;;1.65;;
35048;SDS011;21236;48.740;-3.446;2022-11-20T00:38:36;8.30;;;2.05;;
35048;SDS011;21236;48.740;-3.446;2022-11-20T00:41:08;5.55;;;1.73;;
35048;SDS011;21236;48.740;-3.446;2022-11-20T00:43:34;6.63;;;1.77;;
35048;SDS011;21236;48.740;-3.446;2022-11-20T00:46:08;7.35;;;1.90;;
35048;SDS011;21236;48.740;-3.446;2022-11-20T00:48:34;10.00;;;1.95;;
35048;SDS011;21236;48.740;-3.446;2022-11-20T00:51:00;7.07;;;1.75;;
35048;SDS011;21236;48.740;-3.446;2022-11-20T00:53:27;7.15;;;1.73;;
35048;SDS011;21236;48.740;-3.446;2022-11-20T00:58:19;7.95;;;1.65;;
35048;SDS011;21236;48.740;-3.446;2022-11-20T01:00:46;7.65;;;1.65;;
35048;SDS011;21236;48.740;-3.446;2022-11-20T01:03:12;3.97;;;1.60;;
35048;SDS011;21236;48.740;-3.446;2022-11-20T01:05:38;2.97;;;1.45;;
35048;SDS011;21236;48.740;-3.446;2022-11-20T01:08:04;9.95;;;2.17;;
35048;SDS011;21236;48.740;-3.446;2022-11-20T01:10:30;3.15;;;1.30;;
35048;SDS011;21236;48.740;-3.446;2022-11-20T01:12:56;3.65;;;1.17;;
35048;SDS011;21236;48.740;-3.446;2022-11-20T01:15:41;2.92;;;1.02;;
35048;SDS011;21236;48.740;-3.446;2022-11-20T01:18:07;7.20;;;1.25;;
35048;SDS011;21236;48.740;-3.446;2022-11-20T01:20:36;8.80;;;1.05;;
35048;SDS011;21236;48.740;-3.446;2022-11-20T01:23:03;4.40;;;0.85;;
35048;SDS011;21236;48.740;-3.446;2022-11-20T01:25:29;5.28;;;1.02;;
35048;SDS011;21236;48.740;-3.446;2022-11-20T01:27:55;3.63;;;1.17;;
35048;SDS011;21236;48.740;-3.446;2022-11-20T01:30:21;1.50;;;0.90;;
35048;SDS011;21236;48.740;-3.446;2022-11-20T01:32:47;4.82;;;0.88;;
35048;SDS011;21236;48.740;-3.446;2022-11-20T01:35:13;2.28;;;1.00;;
35048;SDS011;21236;48.740;-3.446;2022-11-20T01:37:39;1.38;;;0.80;;
35048;SDS011;21236;48.740;-3.446;2022-11-20T01:40:06;1.58;;;0.88;;
35048;SDS011;21236;48.740;-3.446;2022-11-20T01:42:32;2.95;;;1.05;;
35048;SDS011;21236;48.740;-3.446;2022-11-20T01:48:01;2.45;;;0.70;;
35048;SDS011;21236;48.740;-3.446;2022-11-20T01:50:27;1.52;;;0.77;;
35048;SDS011;21236;48.740;-3.446;2022-11-20T01:53:01;0.82;;;0.40;;
35048;SDS011;21236;48.740;-3.446;2022-11-20T01:55:30;2.70;;;0.60;;
35048;SDS011;21236;48.740;-3.446;2022-11-20T01:57:56;1.25;;;0.60;;
35048;SDS011;21236;48.740;-3.446;2022-11-20T02:00:23;0.68;;;0.50;;
35048;SDS011;21236;48.740;-3.446;2022-11-20T02:03:06;1.15;;;0.45;;
35048;SDS011;21236;48.740;-3.446;2022-11-20T02:07:59;0.90;;;0.40;;
35048;SDS011;21236;48.740;-3.446;2022-11-20T02:10:25;1.90;;;0.40;;
35048;SDS011;21236;48.740;-3.446;2022-11-20T02:12:52;0.80;;;0.50;;
35048;SDS011;21236;48.740;-3.446;2022-11-20T02:15:37;1.30;;;0.43;;
35048;SDS011;21236;48.740;-3.446;2022-11-20T02:18:03;2.25;;;0.40;;
35048;SDS011;21236;48.740;-3.446;2022-11-20T02:20:31;2.35;;;0.43;;
35048;SDS011;21236;48.740;-3.446;2022-11-20T02:22:59;1.85;;;0.28;;
35048;SDS011;21236;48.740;-3.446;2022-11-20T02:25:26;0.73;;;0.28;;
35048;SDS011;21236;48.740;-3.446;2022-11-20T02:27:53;3.90;;;0.40;;
35048;SDS011;21236;48.740;-3.446;2022-11-20T02:30:19;2.35;;;0.32;;
35048;SDS011;21236;48.740;-3.446;2022-11-20T02:32:45;0.70;;;0.28;;
35048;SDS011;21236;48.740;-3.446;2022-11-20T02:37:43;1.92;;;0.20;;
35048;SDS011;21236;48.740;-3.446;2022-11-20T02:40:10;0.73;;;0.30;;
35048;SDS011;21236;48.740;-3.446;2022-11-20T02:42:37;0.45;;;0.15;;
35048;SDS011;21236;48.740;-3.446;2022-11-20T02:45:04;0.75;;;0.35;;
35048;SDS011;21236;48.740;-3.446;2022-11-20T02:47:30;0.98;;;0.28;;
35048;SDS011;21236;48.740;-3.446;2022-11-20T02:49:56;0.60;;;0.25;;
35048;SDS011;21236;48.740;-3.446;2022-11-20T02:52:23;2.58;;;0.30;;
35048;SDS011;21236;48.740;-3.446;2022-11-20T02:54:49;0.52;;;0.30;;
35048;SDS011;21236;48.740;-3.446;2022-11-20T02:57:15;0.20;;;0.20;;
35048;SDS011;21236;48.740;-3.446;2022-11-20T02:59:41;1.15;;;0.30;;
35048;SDS011;21236;48.740;-3.446;2022-11-20T03:02:07;0.75;;;0.43;;
35048;SDS011;21236;48.740;-3.446;2022-11-20T03:04:33;1.98;;;0.40;;
35048;SDS011;21236;48.740;-3.446;2022-11-20T03:06:59;1.25;;;0.40;;
35048;SDS011;21236;48.740;-3.446;2022-11-20T03:09:25;2.03;;;0.50;;
35048;SDS011;21236;48.740;-3.446;2022-11-20T03:11:52;2.65;;;1.05;;
35048;SDS011;21236;48.740;-3.446;2022-11-20T03:14:18;7.38;;;0.98;;
35048;SDS011;21236;48.740;-3.446;2022-11-20T03:16:44;5.43;;;0.80;;
35048;SDS011;21236;48.740;-3.446;2022-11-20T03:19:11;4.72;;;1.25;;
35048;SDS011;21236;48.740;-3.446;2022-11-20T03:21:37;9.07;;;1.23;;
35048;SDS011;21236;48.740;-3.446;2022-11-20T03:24:03;10.75;;;1.90;;
35048;SDS011;21236;48.740;-3.446;2022-11-20T03:26:29;13.57;;;2.85;;
35048;SDS011;21236;48.740;-3.446;2022-11-20T03:28:56;22.42;;;3.00;;
35048;SDS011;21236;48.740;-3.446;2022-11-20T03:31:27;34.30;;;5.80;;
35048;SDS011;21236;48.740;-3.446;2022-11-20T03:33:54;36.10;;;4.70;;
35048;SDS011;21236;48.740;-3.446;2022-11-20T03:36:21;32.50;;;5.57;;
35048;SDS011;21236;48.740;-3.446;2022-11-20T03:38:47;46.25;;;6.13;;
35048;SDS011;21236;48.740;-3.446;2022-11-20T03:41:17;57.90;;;7.40;;
35048;SDS011;21236;48.740;-3.446;2022-11-20T03:43:50;41.55;;;6.15;;
35048;SDS011;21236;48.740;-3.446;2022-11-20T03:46:17;33.35;;;4.80;;
35048;SDS011;21236;48.740;-3.446;2022-11-20T03:48:43;35.67;;;5.22;;
35048;SDS011;21236;48.740;-3.446;2022-11-20T03:51:10;41.33;;;5.63;;
35048;SDS011;21236;48.740;-3.446;2022-11-20T03:53:37;44.45;;;4.97;;
35048;SDS011;21236;48.740;-3.446;2022-11-20T03:56:03;36.33;;;5.13;;
35048;SDS011;21236;48.740;-3.446;2022-11-20T03:58:30;26.25;;;4.45;;
35048;SDS011;21236;48.740;-3.446;2022-11-20T04:00:56;31.77;;;5.90;;
35048;SDS011;21236;48.740;-3.446;2022-11-20T04:03:22;34.45;;;4.07;;
35048;SDS011;21236;48.740;-3.446;2022-11-20T04:05:48;31.85;;;4.85;;
35048;SDS011;21236;48.740;-3.446;2022-11-20T04:08:14;45.03;;;5.30;;
35048;SDS011;21236;48.740;-3.446;2022-11-20T04:10:40;34.38;;;4.95;;
35048;SDS011;21236;48.740;-3.446;2022-11-20T04:13:06;38.00;;;5.13;;
35048;SDS011;21236;48.740;-3.446;2022-11-20T04:15:32;40.75;;;6.82;;
35048;SDS011;21236;48.740;-3.446;2022-11-20T04:17:58;22.52;;;4.40;;
35048;SDS011;21236;48.740;-3.446;2022-11-20T04:20:24;35.13;;;5.25;;
35048;SDS011;21236;48.740;-3.446;2022-11-20T04:22:52;33.00;;;4.47;;
35048;SDS011;21236;48.740;-3.446;2022-11-20T04:25:19;32.60;;;4.55;;
35048;SDS011;21236;48.740;-3.446;2022-11-20T04:27:45;39.33;;;4.70;;
35048;SDS011;21236;48.740;-3.446;2022-11-20T04:30:12;36.33;;;4.80;;
35048;SDS011;21236;48.740;-3.446;2022-11-20T04:32:38;28.27;;;4.18;;
35048;SDS011;21236;48.740;-3.446;2022-11-20T04:35:04;38.08;;;5.05;;
35048;SDS011;21236;48.740;-3.446;2022-11-20T04:37:30;24.60;;;4.28;;
35048;SDS011;21236;48.740;-3.446;2022-11-20T04:39:56;33.92;;;4.50;;
35048;SDS011;21236;48.740;-3.446;2022-11-20T04:42:22;27.00;;;4.80;;
35048;SDS011;21236;48.740;-3.446;2022-11-20T04:44:55;35.95;;;4.38;;
35048;SDS011;21236;48.740;-3.446;2022-11-20T04:47:21;31.05;;;5.18;;
35048;SDS011;21236;48.740;-3.446;2022-11-20T04:49:47;35.38;;;5.32;;
35048;SDS011;21236;48.740;-3.446;2022-11-20T04:52:13;41.70;;;5.63;;
35048;SDS011;21236;48.740;-3.446;2022-11-20T04:54:39;36.97;;;5.18;;
35048;SDS011;21236;48.740;-3.446;2022-11-20T04:57:05;41.85;;;5.30;;
35048;SDS011;21236;48.740;-3.446;2022-11-20T04:59:31;49.67;;;6.50;;
35048;SDS011;21236;48.740;-3.446;2022-11-20T05:01:57;29.52;;;5.70;;
35048;SDS011;21236;48.740;-3.446;2022-11-20T05:04:24;37.95;;;5.82;;
35048;SDS011;21236;48.740;-3.446;2022-11-20T05:06:50;41.00;;;6.20;;
35048;SDS011;21236;48.740;-3.446;2022-11-20T05:09:16;39.90;;;5.97;;
35048;SDS011;21236;48.740;-3.446;2022-11-20T05:11:42;45.58;;;6.57;;
35048;SDS011;21236;48.740;-3.446;2022-11-20T05:14:08;32.03;;;5.65;;
35048;SDS011;21236;48.740;-3.446;2022-11-20T05:16:34;41.05;;;6.95;;
35048;SDS011;21236;48.740;-3.446;2022-11-20T05:19:01;47.92;;;6.30;;
35048;SDS011;21236;48.740;-3.446;2022-11-20T05:21:29;35.88;;;6.60;;
35048;SDS011;21236;48.740;-3.446;2022-11-20T05:23:55;36.25;;;5.30;;
35048;SDS011;21236;48.740;-3.446;2022-11-20T05:26:21;37.30;;;7.68;;
35048;SDS011;21236;48.740;-3.446;2022-11-20T05:28:48;50.63;;;9.25;;
35048;SDS011;21236;48.740;-3.446;2022-11-20T05:31:15;36.28;;;7.07;;
35048;SDS011;21236;48.740;-3.446;2022-11-20T05:33:42;43.92;;;6.85;;
35048;SDS011;21236;48.740;-3.446;2022-11-20T05:36:08;46.58;;;6.68;;
35048;SDS011;21236;48.740;-3.446;2022-11-20T05:38:35;54.88;;;7.43;;
35048;SDS011;21236;48.740;-3.446;2022-11-20T05:41:05;52.08;;;8.02;;
35048;SDS011;21236;48.740;-3.446;2022-11-20T05:43:35;52.88;;;7.85;;
35048;SDS011;21236;48.740;-3.446;2022-11-20T05:46:01;39.35;;;6.60;;
35048;SDS011;21236;48.740;-3.446;2022-11-20T05:48:28;49.72;;;8.38;;
35048;SDS011;21236;48.740;-3.446;2022-11-20T05:50:54;45.03;;;7.40;;
35048;SDS011;21236;48.740;-3.446;2022-11-20T05:53:20;44.92;;;7.55;;
35048;SDS011;21236;48.740;-3.446;2022-11-20T05:55:46;46.05;;;8.05;;
35048;SDS011;21236;48.740;-3.446;2022-11-20T05:58:12;47.22;;;7.72;;
35048;SDS011;21236;48.740;-3.446;2022-11-20T06:00:38;56.45;;;7.75;;
35048;SDS011;21236;48.740;-3.446;2022-11-20T06:03:04;47.33;;;6.68;;
35048;SDS011;21236;48.740;-3.446;2022-11-20T06:05:30;48.50;;;8.40;;
35048;SDS011;21236;48.740;-3.446;2022-11-20T06:07:56;58.15;;;9.95;;
35048;SDS011;21236;48.740;-3.446;2022-11-20T06:10:22;51.25;;;8.15;;
35048;SDS011;21236;48.740;-3.446;2022-11-20T06:12:48;43.03;;;5.80;;
35048;SDS011;21236;48.740;-3.446;2022-11-20T06:15:14;44.35;;;7.15;;
35048;SDS011;21236;48.740;-3.446;2022-11-20T06:17:41;63.80;;;7.85;;
35048;SDS011;21236;48.740;-3.446;2022-11-20T06:20:07;41.40;;;8.65;;
35048;SDS011;21236;48.740;-3.446;2022-11-20T06:22:33;41.00;;;6.75;;
35048;SDS011;21236;48.740;-3.446;2022-11-20T06:24:59;44.63;;;7.15;;
35048;SDS011;21236;48.740;-3.446;2022-11-20T06:27:25;41.20;;;7.93;;
35048;SDS011;21236;48.740;-3.446;2022-11-20T06:29:52;46.80;;;7.72;;
35048;SDS011;21236;48.740;-3.446;2022-11-20T06:32:18;44.83;;;7.47;;
35048;SDS011;21236;48.740;-3.446;2022-11-20T06:34:44;45.85;;;7.43;;
35048;SDS011;21236;48.740;-3.446;2022-11-20T06:37:10;47.13;;;6.30;;
35048;SDS011;21236;48.740;-3.446;2022-11-20T06:39:36;53.70;;;8.07;;
35048;SDS011;21236;48.740;-3.446;2022-11-20T06:42:03;48.13;;;7.97;;
35048;SDS011;21236;48.740;-3.446;2022-11-20T06:44:29;38.97;;;6.90;;
35048;SDS011;21236;48.740;-3.446;2022-11-20T06:46:55;54.33;;;8.23;;
35048;SDS011;21236;48.740;-3.446;2022-11-20T06:49:21;50.95;;;7.78;;
35048;SDS011;21236;48.740;-3.446;2022-11-20T06:51:47;43.08;;;6.78;;
35048;SDS011;21236;48.740;-3.446;2022-11-20T06:54:13;45.95;;;8.00;;
35048;SDS011;21236;48.740;-3.446;2022-11-20T06:56:40;60.60;;;7.60;;
35048;SDS011;21236;48.740;-3.446;2022-11-20T06:59:06;52.63;;;8.43;;
35048;SDS011;21236;48.740;-3.446;2022-11-20T07:01:33;46.55;;;7.53;;
35048;SDS011;21236;48.740;-3.446;2022-11-20T07:04:00;46.58;;;8.30;;
35048;SDS011;21236;48.740;-3.446;2022-11-20T07:06:26;60.00;;;8.10;;
35048;SDS011;21236;48.740;-3.446;2022-11-20T07:08:52;42.22;;;8.32;;
35048;SDS011;21236;48.740;-3.446;2022-11-20T07:11:18;47.97;;;7.93;;
35048;SDS011;21236;48.740;-3.446;2022-11-20T07:13:44;52.00;;;9.65;;
35048;SDS011;21236;48.740;-3.446;2022-11-20T07:16:10;46.75;;;7.63;;
35048;SDS011;21236;48.740;-3.446;2022-11-20T07:18:36;48.97;;;7.68;;
35048;SDS011;21236;48.740;-3.446;2022-11-20T07:21:04;47.70;;;8.57;;
35048;SDS011;21236;48.740;-3.446;2022-11-20T07:23:30;42.33;;;6.97;;
35048;SDS011;21236;48.740;-3.446;2022-11-20T07:25:57;51.10;;;8.43;;
35048;SDS011;21236;48.740;-3.446;2022-11-20T07:28:23;34.40;;;6.00;;
35048;SDS011;21236;48.740;-3.446;2022-11-20T07:30:52;48.08;;;8.85;;
35048;SDS011;21236;48.740;-3.446;2022-11-20T07:33:19;42.38;;;7.68;;
35048;SDS011;21236;48.740;-3.446;2022-11-20T07:35:45;42.25;;;5.63;;
35048;SDS011;21236;48.740;-3.446;2022-11-20T07:38:11;37.25;;;6.60;;
35048;SDS011;21236;48.740;-3.446;2022-11-20T07:40:37;35.50;;;6.50;;
35048;SDS011;21236;48.740;-3.446;2022-11-20T07:43:03;40.15;;;5.47;;
35048;SDS011;21236;48.740;-3.446;2022-11-20T07:45:29;32.17;;;5.68;;
35048;SDS011;21236;48.740;-3.446;2022-11-20T07:47:55;35.10;;;5.50;;
35048;SDS011;21236;48.740;-3.446;2022-11-20T07:50:22;42.42;;;6.63;;
35048;SDS011;21236;48.740;-3.446;2022-11-20T07:52:48;48.30;;;8.25;;
35048;SDS011;21236;48.740;-3.446;2022-11-20T07:55:14;45.92;;;8.20;;
35048;SDS011;21236;48.740;-3.446;2022-11-20T07:57:40;38.33;;;5.88;;
35048;SDS011;21236;48.740;-3.446;2022-11-20T08:00:07;49.38;;;6.93;;
35048;SDS011;21236;48.740;-3.446;2022-11-20T08:02:40;42.83;;;7.70;;
35048;SDS011;21236;48.740;-3.446;2022-11-20T08:05:07;43.33;;;7.32;;
35048;SDS011;21236;48.740;-3.446;2022-11-20T08:07:40;34.80;;;6.90;;
35048;SDS011;21236;48.740;-3.446;2022-11-20T08:10:07;36.17;;;6.97;;
35048;SDS011;21236;48.740;-3.446;2022-11-20T08:12:34;29.75;;;5.70;;
35048;SDS011;21236;48.740;-3.446;2022-11-20T08:15:19;44.83;;;7.50;;
35048;SDS011;21236;48.740;-3.446;2022-11-20T08:17:45;44.22;;;6.80;;
35048;SDS011;21236;48.740;-3.446;2022-11-20T08:20:11;30.48;;;6.13;;
35048;SDS011;21236;48.740;-3.446;2022-11-20T08:22:37;39.45;;;6.75;;
35048;SDS011;21236;48.740;-3.446;2022-11-20T08:25:03;32.78;;;5.30;;
35048;SDS011;21236;48.740;-3.446;2022-11-20T08:27:31;27.35;;;4.53;;
35048;SDS011;21236;48.740;-3.446;2022-11-20T08:29:57;28.75;;;5.30;;
35048;SDS011;21236;48.740;-3.446;2022-11-20T08:32:23;36.28;;;5.35;;
35048;SDS011;21236;48.740;-3.446;2022-11-20T08:34:49;30.10;;;6.10;;
35048;SDS011;21236;48.740;-3.446;2022-11-20T08:37:15;38.10;;;6.25;;
35048;SDS011;21236;48.740;-3.446;2022-11-20T08:39:41;43.97;;;5.72;;
35048;SDS011;21236;48.740;-3.446;2022-11-20T08:42:07;23.85;;;5.05;;
35048;SDS011;21236;48.740;-3.446;2022-11-20T08:44:33;22.42;;;3.95;;
35048;SDS011;21236;48.740;-3.446;2022-11-20T08:47:00;24.40;;;3.83;;
35048;SDS011;21236;48.740;-3.446;2022-11-20T08:49:26;18.20;;;3.15;;
35048;SDS011;21236;48.740;-3.446;2022-11-20T08:51:52;22.00;;;4.00;;
35048;SDS011;21236;48.740;-3.446;2022-11-20T08:54:20;16.92;;;3.80;;
35048;SDS011;21236;48.740;-3.446;2022-11-20T08:56:47;19.05;;;3.85;;
35048;SDS011;21236;48.740;-3.446;2022-11-20T08:59:13;26.95;;;4.95;;
35048;SDS011;21236;48.740;-3.446;2022-11-20T09:01:39;23.48;;;5.47;;
35048;SDS011;21236;48.740;-3.446;2022-11-20T09:04:05;22.55;;;4.85;;
35048;SDS011;21236;48.740;-3.446;2022-11-20T09:06:31;39.63;;;5.53;;
35048;SDS011;21236;48.740;-3.446;2022-11-20T09:08:57;32.42;;;6.53;;
35048;SDS011;21236;48.740;-3.446;2022-11-20T09:11:23;26.48;;;4.63;;
35048;SDS011;21236;48.740;-3.446;2022-11-20T09:13:50;38.10;;;6.55;;
35048;SDS011;21236;48.740;-3.446;2022-11-20T09:16:16;38.03;;;6.85;;
35048;SDS011;21236;48.740;-3.446;2022-11-20T09:18:42;46.90;;;6.32;;
35048;SDS011;21236;48.740;-3.446;2022-11-20T09:21:09;38.40;;;5.65;;
35048;SDS011;21236;48.740;-3.446;2022-11-20T09:23:36;32.22;;;6.65;;
35048;SDS011;21236;48.740;-3.446;2022-11-20T09:26:06;28.88;;;5.40;;
35048;SDS011;21236;48.740;-3.446;2022-11-20T09:28:32;35.75;;;6.60;;
35048;SDS011;21236;48.740;-3.446;2022-11-20T09:30:59;42.38;;;5.90;;
35048;SDS011;21236;48.740;-3.446;2022-11-20T09:33:25;32.38;;;5.55;;
35048;SDS011;21236;48.740;-3.446;2022-11-20T09:35:51;44.28;;;6.18;;
35048;SDS011;21236;48.740;-3.446;2022-11-20T09:38:17;34.92;;;5.53;;
35048;SDS011;21236;48.740;-3.446;2022-11-20T09:40:45;42.00;;;7.75;;
35048;SDS011;21236;48.740;-3.446;2022-11-20T09:51:45;31.40;;;7.57;;
35048;SDS011;21236;48.740;-3.446;2022-11-20T09:56:33;35.30;;;5.78;;
35048;SDS011;21236;48.740;-3.446;2022-11-20T09:58:59;28.08;;;5.05;;
35048;SDS011;21236;48.740;-3.446;2022-11-20T10:01:31;28.30;;;4.63;;
35048;SDS011;21236;48.740;-3.446;2022-11-20T10:06:44;23.25;;;4.53;;
35048;SDS011;21236;48.740;-3.446;2022-11-20T10:17:01;27.42;;;4.63;;
35048;SDS011;21236;48.740;-3.446;2022-11-20T10:30:00;29.77;;;5.95;;
35048;SDS011;21236;48.740;-3.446;2022-11-20T10:32:29;26.40;;;4.40;;
35048;SDS011;21236;48.740;-3.446;2022-11-20T10:37:24;27.00;;;5.30;;
35048;SDS011;21236;48.740;-3.446;2022-11-20T10:40:01;35.08;;;5.20;;
35048;SDS011;21236;48.740;-3.446;2022-11-20T10:42:31;27.08;;;4.70;;
35048;SDS011;21236;48.740;-3.446;2022-11-20T10:47:50;29.77;;;6.43;;
35048;SDS011;21236;48.740;-3.446;2022-11-20T10:50:18;33.85;;;4.90;;
35048;SDS011;21236;48.740;-3.446;2022-11-20T10:58:14;29.80;;;5.57;;
35048;SDS011;21236;48.740;-3.446;2022-11-20T11:00:40;33.75;;;5.72;;
35048;SDS011;21236;48.740;-3.446;2022-11-20T11:03:17;22.88;;;3.72;;
35048;SDS011;21236;48.740;-3.446;2022-11-20T11:05:48;25.83;;;4.60;;
35048;SDS011;21236;48.740;-3.446;2022-11-20T11:08:17;18.02;;;4.00;;
35048;SDS011;21236;48.740;-3.446;2022-11-20T11:10:47;31.17;;;4.68;;
35048;SDS011;21236;48.740;-3.446;2022-11-20T11:13:23;24.92;;;4.65;;
35048;SDS011;21236;48.740;-3.446;2022-11-20T11:15:50;22.60;;;3.58;;
35048;SDS011;21236;48.740;-3.446;2022-11-20T11:20:51;23.75;;;3.67;;
35048;SDS011;21236;48.740;-3.446;2022-11-20T11:26:03;22.35;;;4.53;;
35048;SDS011;21236;48.740;-3.446;2022-11-20T11:28:30;22.73;;;4.18;;
35048;SDS011;21236;48.740;-3.446;2022-11-20T11:30:57;23.20;;;5.15;;
35048;SDS011;21236;48.740;-3.446;2022-11-20T11:35:50;30.67;;;5.35;;
35048;SDS011;21236;48.740;-3.446;2022-11-20T11:38:39;24.30;;;3.40;;
35048;SDS011;21236;48.740;-3.446;2022-11-20T11:41:09;20.85;;;3.70;;
35048;SDS011;21236;48.740;-3.446;2022-11-20T11:43:37;18.60;;;3.67;;
35048;SDS011;21236;48.740;-3.446;2022-11-20T11:46:27;30.35;;;5.53;;
35048;SDS011;21236;48.740;-3.446;2022-11-20T11:51:24;21.98;;;4.80;;
35048;SDS011;21236;48.740;-3.446;2022-11-20T11:53:54;29.08;;;5.38;;
35048;SDS011;21236;48.740;-3.446;2022-11-20T11:56:20;20.92;;;3.80;;
35048;SDS011;21236;48.740;-3.446;2022-11-20T11:58:48;27.50;;;4.20;;
35048;SDS011;21236;48.740;-3.446;2022-11-20T12:04:50;23.00;;;4.13;;
35048;SDS011;21236;48.740;-3.446;2022-11-20T12:06:47;25.35;;;4.63;;
35048;SDS011;21236;48.740;-3.446;2022-11-20T12:09:16;31.25;;;4.65;;
35048;SDS011;21236;48.740;-3.446;2022-11-20T12:11:49;20.77;;;3.50;;
35048;SDS011;21236;48.740;-3.446;2022-11-20T12:14:20;21.20;;;3.80;;
35048;SDS011;21236;48.740;-3.446;2022-11-20T12:16:49;18.50;;;3.50;;
35048;SDS011;21236;48.740;-3.446;2022-11-20T12:19:15;29.08;;;4.25;;
35048;SDS011;21236;48.740;-3.446;2022-11-20T12:29:41;23.42;;;4.88;;
35048;SDS011;21236;48.740;-3.446;2022-11-20T12:39:42;30.65;;;4.20;;
35048;SDS011;21236;48.740;-3.446;2022-11-20T12:45:19;19.27;;;4.15;;
35048;SDS011;21236;48.740;-3.446;2022-11-20T12:47:55;28.50;;;4.03;;
35048;SDS011;21236;48.740;-3.446;2022-11-20T12:53:01;22.65;;;3.95;;
35048;SDS011;21236;48.740;-3.446;2022-11-20T12:55:32;18.85;;;3.55;;
35048;SDS011;21236;48.740;-3.446;2022-11-20T13:00:28;22.00;;;4.07;;
35048;SDS011;21236;48.740;-3.446;2022-11-20T13:07:58;31.63;;;3.83;;
35048;SDS011;21236;48.740;-3.446;2022-11-20T13:12:59;26.50;;;5.05;;
35048;SDS011;21236;48.740;-3.446;2022-11-20T13:15:37;16.10;;;3.45;;
35048;SDS011;21236;48.740;-3.446;2022-11-20T13:18:08;29.30;;;3.90;;
35048;SDS011;21236;48.740;-3.446;2022-11-20T13:20:34;29.77;;;5.25;;
35048;SDS011;21236;48.740;-3.446;2022-11-20T13:23:01;20.83;;;4.35;;
35048;SDS011;21236;48.740;-3.446;2022-11-20T13:25:31;21.13;;;4.70;;
35048;SDS011;21236;48.740;-3.446;2022-11-20T13:27:59;23.20;;;4.45;;
35048;SDS011;21236;48.740;-3.446;2022-11-20T13:30:26;27.65;;;3.95;;
35048;SDS011;21236;48.740;-3.446;2022-11-20T13:33:03;24.90;;;5.05;;
35048;SDS011;21236;48.740;-3.446;2022-11-20T13:35:40;32.35;;;4.35;;
35048;SDS011;21236;48.740;-3.446;2022-11-20T13:38:08;19.08;;;4.28;;
35048;SDS011;21236;48.740;-3.446;2022-11-20T15:25:19;35.53;;;5.63;;
35048;SDS011;21236;48.740;-3.446;2022-11-20T15:27:45;29.88;;;6.15;;
35048;SDS011;21236;48.740;-3.446;2022-11-20T15:30:15;31.35;;;5.30;;
35048;SDS011;21236;48.740;-3.446;2022-11-20T15:32:42;30.52;;;5.80;;
35048;SDS011;21236;48.740;-3.446;2022-11-20T15:35:08;32.63;;;6.45;;
35048;SDS011;21236;48.740;-3.446;2022-11-20T15:37:35;31.30;;;5.25;;
35048;SDS011;21236;48.740;-3.446;2022-11-20T15:40:02;32.35;;;5.18;;
35048;SDS011;21236;48.740;-3.446;2022-11-20T15:42:28;33.15;;;5.78;;
35048;SDS011;21236;48.740;-3.446;2022-11-20T15:44:54;32.25;;;7.40;;
35048;SDS011;21236;48.740;-3.446;2022-11-20T15:47:20;30.55;;;5.65;;
35048;SDS011;21236;48.740;-3.446;2022-11-20T15:49:48;33.35;;;6.13;;
35048;SDS011;21236;48.740;-3.446;2022-11-20T15:52:15;30.20;;;5.60;;
35048;SDS011;21236;48.740;-3.446;2022-11-20T15:54:41;30.65;;;6.90;;
35048;SDS011;21236;48.740;-3.446;2022-11-20T15:57:07;33.28;;;6.32;;
35048;SDS011;21236;48.740;-3.446;2022-11-20T15:59:34;45.42;;;6.57;;
35048;SDS011;21236;48.740;-3.446;2022-11-20T16:02:09;35.33;;;6.05;;
35048;SDS011;21236;48.740;-3.446;2022-11-20T16:04:35;39.83;;;7.85;;
35048;SDS011;21236;48.740;-3.446;2022-11-20T16:07:01;42.55;;;7.40;;
35048;SDS011;21236;48.740;-3.446;2022-11-20T16:09:27;38.50;;;7.57;;
35048;SDS011;21236;48.740;-3.446;2022-11-20T16:11:53;34.72;;;7.10;;
35048;SDS011;21236;48.740;-3.446;2022-11-20T16:14:19;40.30;;;7.95;;
35048;SDS011;21236;48.740;-3.446;2022-11-20T16:17:04;37.63;;;7.68;;
35048;SDS011;21236;48.740;-3.446;2022-11-20T16:19:30;41.65;;;7.03;;
35048;SDS011;21236;48.740;-3.446;2022-11-20T16:21:59;35.80;;;7.15;;
35048;SDS011;21236;48.740;-3.446;2022-11-20T16:24:28;44.13;;;7.20;;
35048;SDS011;21236;48.740;-3.446;2022-11-20T16:26:54;43.35;;;7.28;;
35048;SDS011;21236;48.740;-3.446;2022-11-20T16:29:21;44.25;;;7.18;;
35048;SDS011;21236;48.740;-3.446;2022-11-20T16:31:47;23.98;;;5.65;;
35048;SDS011;21236;48.740;-3.446;2022-11-20T16:34:15;38.28;;;6.80;;
35048;SDS011;21236;48.740;-3.446;2022-11-20T16:36:41;34.42;;;6.95;;
35048;SDS011;21236;48.740;-3.446;2022-11-20T16:39:08;42.63;;;7.15;;
35048;SDS011;21236;48.740;-3.446;2022-11-20T16:41:34;29.17;;;6.10;;
35048;SDS011;21236;48.740;-3.446;2022-11-20T16:44:02;41.00;;;7.50;;
35048;SDS011;21236;48.740;-3.446;2022-11-20T16:46:31;34.15;;;6.65;;
35048;SDS011;21236;48.740;-3.446;2022-11-20T16:48:58;39.72;;;7.18;;
35048;SDS011;21236;48.740;-3.446;2022-11-20T16:51:25;33.05;;;7.47;;
35048;SDS011;21236;48.740;-3.446;2022-11-20T16:53:52;33.78;;;6.90;;
35048;SDS011;21236;48.740;-3.446;2022-11-20T16:56:20;35.28;;;7.18;;
35048;SDS011;21236;48.740;-3.446;2022-11-20T16:58:47;28.20;;;5.75;;
35048;SDS011;21236;48.740;-3.446;2022-11-20T17:01:15;32.67;;;5.90;;
35048;SDS011;21236;48.740;-3.446;2022-11-20T17:03:42;39.75;;;7.68;;
35048;SDS011;21236;48.740;-3.446;2022-11-20T17:06:12;38.92;;;7.68;;
35048;SDS011;21236;48.740;-3.446;2022-11-20T17:08:38;43.40;;;8.48;;
35048;SDS011;21236;48.740;-3.446;2022-11-20T17:11:05;36.45;;;7.05;;
35048;SDS011;21236;48.740;-3.446;2022-11-20T17:13:31;40.20;;;6.88;;
35048;SDS011;21236;48.740;-3.446;2022-11-20T17:16:04;35.88;;;7.03;;
35048;SDS011;21236;48.740;-3.446;2022-11-20T17:18:31;34.22;;;6.57;;
35048;SDS011;21236;48.740;-3.446;2022-11-20T17:20:57;37.85;;;7.53;;
35048;SDS011;21236;48.740;-3.446;2022-11-20T17:23:28;42.42;;;6.25;;
35048;SDS011;21236;48.740;-3.446;2022-11-20T17:26:01;32.30;;;6.18;;
35048;SDS011;21236;48.740;-3.446;2022-11-20T17:28:28;39.67;;;6.03;;
35048;SDS011;21236;48.740;-3.446;2022-11-20T17:30:59;48.13;;;9.27;;
35048;SDS011;21236;48.740;-3.446;2022-11-20T17:33:25;36.95;;;6.78;;
35048;SDS011;21236;48.740;-3.446;2022-11-20T17:35:51;39.60;;;6.43;;
35048;SDS011;21236;48.740;-3.446;2022-11-20T17:38:18;40.92;;;7.20;;
35048;SDS011;21236;48.740;-3.446;2022-11-20T17:40:44;54.13;;;8.77;;
35048;SDS011;21236;48.740;-3.446;2022-11-20T17:43:10;36.47;;;9.20;;
35048;SDS011;21236;48.740;-3.446;2022-11-20T17:45:36;46.65;;;9.82;;
35048;SDS011;21236;48.740;-3.446;2022-11-20T17:48:02;47.65;;;7.88;;